Saltcoats, United Kingdom
Current Conditions -  °F | °C
As of 12:50 AM on Tuesday 23 Dec 2014 (Local Time) from EGPK Reporting Station
Moderate Rain Moderate Rain  
Wind Chill: 41°   Ceiling: 2500
Heat Index: 46°   Visibility: 5mi
Dew Point: 45°   Wind: 12mph
Humidity: 93%   Direction: 250°WSW
Pressure: 29.68"   Gusts: NA
Location:  55.62°N, 4.8°W
Report Text: EGPK 230050Z 25010KT 8000 RA FEW008 SCT017 BKN025 08/07 Q1005
Loading
Personal Weather Stations






























Interactive Weather Map New forecast layout! Learn more

10-Day Weather Forecast

Advertisements
Track Severe Weather on mobile